Hlavní strana
METAR-TAF:

METAR-TAF

Letiště :

Siler City, Severní Karolína, Spojené státy americké

zeměpisná šířka: 35-42-15N, zeměpisná délka: 079-30-15W, výška: 187 m

Aktuální stav počasí

Zpráva byla vytvořena před 32 minutami, v 17:55 UTC
Západní vítr 7 kt
Teplota 8°C
Vlhkost vzduchu 31%
Tlak 1016 hPa
Viditelnost: 16.1 km
Jasno

METAR: KSCR 271755Z AUTO 27007KT 10SM CLR 08/M08 A2999 RMK AO2 T00771082 10078 20020

Čas: 13:27 (18:27 UTC)


TAF: chybějící

Stav a předpovědi počasí z více než 4 000 letišť (zprávy METAR a TAF).

Červené a žluté tečky na mapě představují dostupné meteorologické stanice.

Když kurzor umístíte na tečku, zobrazí se název stanice.

Pak kliknutím zobrazíte stav a předpověď počasí.

Chcete-li změnit mapu, kliknutím na zelené tlačítko se znaménkem +mapu přiblížíte, kliknutím na zelené tlačítko se znaménkem – mapu oddálíte a kliknutím na zelené šipky přejdete na sousední mapy.


METAR-TAF: